createdAt,value
2018-01-21T00:00:55.128Z,52.97
2018-01-21T00:01:55.122Z,52.91
2018-01-21T00:02:55.115Z,52.78
2018-01-21T00:03:55.107Z,52.78
2018-01-21T00:04:55.099Z,53.07
2018-01-21T00:05:55.094Z,53.07
2018-01-21T00:06:55.089Z,53.07
2018-01-21T00:07:55.079Z,53.07
2018-01-21T00:08:55.072Z,53.17
2018-01-21T00:09:55.066Z,53.27
2018-01-21T00:10:55.057Z,53.27
2018-01-21T00:11:55.050Z,53.74
2018-01-21T00:12:55.044Z,52.97
2018-01-21T00:13:55.035Z,53.17
2018-01-21T00:14:55.032Z,53.45
2018-01-21T00:15:55.021Z,53.55
2018-01-21T00:16:55.016Z,53.65
2018-01-21T00:17:55.006Z,53.65
2018-01-21T00:18:54.998Z,53.45
2018-01-21T00:19:54.992Z,53.45
2018-01-21T00:20:54.981Z,53.45
2018-01-21T00:21:54.977Z,53.55
2018-01-21T00:22:54.971Z,53.74
2018-01-21T00:23:54.968Z,53.36
2018-01-21T00:24:54.956Z,53.45
2018-01-21T00:25:54.950Z,53.27
2018-01-21T00:26:54.942Z,53.45
2018-01-21T00:27:54.938Z,53.55
2018-01-21T00:28:54.927Z,53.55
2018-01-21T00:29:54.921Z,53.45
2018-01-21T00:30:54.913Z,53.74
2018-01-21T00:31:54.908Z,53.74
2018-01-21T00:32:54.900Z,53.94
2018-01-21T00:33:54.891Z,54.13
2018-01-21T00:34:54.887Z,53.84
2018-01-21T00:35:54.880Z,53.55
2018-01-21T00:36:54.872Z,53.74
2018-01-21T00:37:54.865Z,53.74
2018-01-21T00:38:54.862Z,53.74
2018-01-21T00:39:54.852Z,53.74
2018-01-21T00:40:54.843Z,54.03
2018-01-21T00:41:54.837Z,53.94
2018-01-21T00:42:54.830Z,53.94
2018-01-21T00:43:54.824Z,53.94
2018-01-21T00:44:54.818Z,53.94
2018-01-21T00:45:54.808Z,53.84
2018-01-21T00:46:54.803Z,53.84
2018-01-21T00:47:54.796Z,53.84
2018-01-21T00:48:54.787Z,53.84
2018-01-21T00:49:54.784Z,53.94
2018-01-21T00:50:54.776Z,53.84
2018-01-21T00:51:54.770Z,53.84
2018-01-21T00:52:54.761Z,54.03
2018-01-21T00:53:54.758Z,53.65
2018-01-21T00:54:54.749Z,53.94
2018-01-21T00:55:54.743Z,53.94
2018-01-21T00:56:54.734Z,53.65
2018-01-21T00:57:54.728Z,53.94
2018-01-21T00:58:54.721Z,53.94
2018-01-21T00:59:54.716Z,53.74
2018-01-21T01:00:54.707Z,53.65
2018-01-21T01:01:54.701Z,54.03
2018-01-21T01:02:54.697Z,53.65
2018-01-21T01:03:54.687Z,53.74
2018-01-21T01:04:54.682Z,53.65
2018-01-21T01:05:54.675Z,53.74
2018-01-21T01:06:54.667Z,53.65
2018-01-21T01:07:54.660Z,53.65
2018-01-21T01:08:54.652Z,53.65
2018-01-21T01:09:54.647Z,53.84
2018-01-21T01:10:54.641Z,53.84
2018-01-21T01:11:54.632Z,53.74
2018-01-21T01:12:54.625Z,54.13
2018-01-21T01:13:54.619Z,54.13
2018-01-21T01:14:54.614Z,53.84
2018-01-21T01:15:54.610Z,53.84
2018-01-21T01:16:54.606Z,54.13
2018-01-21T01:17:54.594Z,54.03
2018-01-21T01:18:54.584Z,54.03
2018-01-21T01:19:54.582Z,54.03
2018-01-21T01:20:54.571Z,53.94
2018-01-21T01:21:54.566Z,54.13
2018-01-21T01:22:54.558Z,54.13
2018-01-21T01:23:54.553Z,54.42
2018-01-21T01:24:54.546Z,54.42
2018-01-21T01:25:54.538Z,54.42
2018-01-21T01:26:54.533Z,54.42
2018-01-21T01:27:54.526Z,54.42
2018-01-21T01:28:54.517Z,54.13
2018-01-21T01:29:54.511Z,54.22
2018-01-21T01:30:54.505Z,54.22
2018-01-21T01:31:54.499Z,54.42
2018-01-21T01:32:54.491Z,54.32
2018-01-21T01:33:54.483Z,54.80
2018-01-21T01:34:54.481Z,54.22
2018-01-21T01:35:54.480Z,54.32
2018-01-21T01:36:54.464Z,54.42
2018-01-21T01:37:54.457Z,54.71
2018-01-21T01:38:54.455Z,54.80
2018-01-21T01:39:54.446Z,54.32
2018-01-21T01:40:54.438Z,54.71
2018-01-21T01:41:54.433Z,54.71
2018-01-21T01:42:54.425Z,54.80
2018-01-21T01:43:54.419Z,54.90
2018-01-21T01:44:54.412Z,54.61
2018-01-21T01:45:54.404Z,54.80
2018-01-21T01:46:54.401Z,54.90
2018-01-21T01:47:54.392Z,54.90
2018-01-21T01:48:54.382Z,54.80
2018-01-21T01:49:54.378Z,54.90
2018-01-21T01:50:54.371Z,54.80
2018-01-21T01:51:54.365Z,54.80
2018-01-21T01:52:54.357Z,54.80
2018-01-21T01:53:54.352Z,54.90
2018-01-21T01:54:54.345Z,54.61
2018-01-21T01:55:54.338Z,54.90
2018-01-21T01:56:54.331Z,54.80
2018-01-21T01:57:54.326Z,54.80
2018-01-21T01:58:54.317Z,54.71
2018-01-21T01:59:54.314Z,54.80
2018-01-21T02:00:54.307Z,54.80
2018-01-21T02:01:54.299Z,54.90
2018-01-21T02:02:54.292Z,54.90
2018-01-21T02:03:54.289Z,54.71
2018-01-21T02:04:54.293Z,54.71
2018-01-21T02:05:54.271Z,54.71
2018-01-21T02:06:54.270Z,54.80
2018-01-21T02:07:54.259Z,54.80
2018-01-21T02:08:54.252Z,54.71
2018-01-21T02:09:54.246Z,54.80
2018-01-21T02:10:54.239Z,54.80
2018-01-21T02:11:54.232Z,54.71
2018-01-21T02:12:54.228Z,54.71
2018-01-21T02:13:54.223Z,54.80
2018-01-21T02:14:54.211Z,54.71
2018-01-21T02:15:54.240Z,54.22
2018-01-21T02:16:54.198Z,54.80
2018-01-21T02:17:54.193Z,54.71
2018-01-21T02:18:54.186Z,54.80
2018-01-21T02:19:54.180Z,54.80
2018-01-21T02:20:54.172Z,54.90
2018-01-21T02:21:54.164Z,54.71
2018-01-21T02:22:54.159Z,54.90
2018-01-21T02:23:54.153Z,54.80
2018-01-21T02:24:54.146Z,54.61
2018-01-21T02:25:54.141Z,54.71
2018-01-21T02:26:54.132Z,54.71
2018-01-21T02:27:54.126Z,54.71
2018-01-21T02:28:54.119Z,54.52
2018-01-21T02:29:54.114Z,54.71
2018-01-21T02:30:54.107Z,54.61
2018-01-21T02:31:54.100Z,54.80
2018-01-21T02:32:54.094Z,54.71
2018-01-21T02:33:54.088Z,54.71
2018-01-21T02:34:54.080Z,54.80
2018-01-21T02:35:54.136Z,54.71
2018-01-21T02:36:54.066Z,54.61
2018-01-21T02:37:54.060Z,54.80
2018-01-21T02:38:54.054Z,54.52
2018-01-21T02:39:54.047Z,54.52
2018-01-21T02:40:54.043Z,54.52
2018-01-21T02:41:54.055Z,54.52
2018-01-21T02:42:54.028Z,54.61
2018-01-21T02:43:54.021Z,54.61
2018-01-21T02:44:54.015Z,54.52
2018-01-21T02:45:54.009Z,54.42
2018-01-21T02:46:54.000Z,54.71
2018-01-21T02:47:53.995Z,54.61
2018-01-21T02:48:53.988Z,54.52
2018-01-21T02:49:53.982Z,54.71
2018-01-21T02:50:53.976Z,54.61
2018-01-21T02:51:53.969Z,55.09
2018-01-21T02:52:53.960Z,55.00
2018-01-21T02:53:53.954Z,54.71
2018-01-21T02:54:53.950Z,55.09
2018-01-21T02:55:53.943Z,54.80
2018-01-21T02:56:53.936Z,54.71
2018-01-21T02:57:53.927Z,55.00
2018-01-21T02:58:53.924Z,54.90
2018-01-21T02:59:53.916Z,54.90
2018-01-21T03:00:53.910Z,55.19
2018-01-21T03:01:53.904Z,54.80
2018-01-21T03:02:53.895Z,54.71
2018-01-21T03:03:53.890Z,55.29
2018-01-21T03:04:53.882Z,55.38
2018-01-21T03:05:53.876Z,55.09
2018-01-21T03:06:53.869Z,55.29
2018-01-21T03:07:53.865Z,55.09
2018-01-21T03:08:53.855Z,55.16
2018-01-21T03:09:53.848Z,55.45
2018-01-21T03:10:53.844Z,55.26
2018-01-21T03:11:53.837Z,55.07
2018-01-21T03:12:53.834Z,55.16
2018-01-21T03:13:53.823Z,55.48
2018-01-21T03:14:53.817Z,55.48
2018-01-21T03:15:53.814Z,55.55
2018-01-21T03:16:53.802Z,55.55
2018-01-21T03:17:53.799Z,55.74
2018-01-21T03:18:53.790Z,55.74
2018-01-21T03:19:53.788Z,55.55
2018-01-21T03:20:53.780Z,55.55
2018-01-21T03:21:53.770Z,55.65
2018-01-21T03:22:53.766Z,55.74
2018-01-21T03:23:53.761Z,55.26
2018-01-21T03:24:53.751Z,55.45
2018-01-21T03:25:53.748Z,55.55
2018-01-21T03:26:53.738Z,55.45
2018-01-21T03:27:53.733Z,55.55
2018-01-21T03:28:53.726Z,55.45
2018-01-21T03:29:53.720Z,55.35
2018-01-21T03:30:53.712Z,55.35
2018-01-21T03:31:53.705Z,55.26
2018-01-21T03:32:53.697Z,55.45
2018-01-21T03:33:53.694Z,55.35
2018-01-21T03:34:53.686Z,55.35
2018-01-21T03:35:53.678Z,55.35
2018-01-21T03:36:53.672Z,55.55
2018-01-21T03:37:53.665Z,55.35
2018-01-21T03:38:53.658Z,55.45
2018-01-21T03:39:53.654Z,55.74
2018-01-21T03:40:53.644Z,55.74
2018-01-21T03:41:53.639Z,55.65
2018-01-21T03:42:53.634Z,55.83
2018-01-21T03:43:53.626Z,55.74
2018-01-21T03:44:53.618Z,55.74
2018-01-21T03:45:53.613Z,55.74
2018-01-21T03:46:53.612Z,55.55
2018-01-21T03:47:53.602Z,55.55
2018-01-21T03:48:53.592Z,55.83
2018-01-21T03:49:53.586Z,55.83
2018-01-21T03:50:53.582Z,55.57
2018-01-21T03:51:53.573Z,55.65
2018-01-21T03:52:53.567Z,55.74
2018-01-21T03:53:53.559Z,55.55
2018-01-21T03:54:53.557Z,55.83
2018-01-21T03:55:53.549Z,55.74
2018-01-21T03:56:53.542Z,55.74
2018-01-21T03:57:53.534Z,56.12
2018-01-21T03:58:53.528Z,55.93
2018-01-21T03:59:53.521Z,56.12
2018-01-21T04:00:53.513Z,56.12
2018-01-21T04:01:53.508Z,55.87
2018-01-21T04:02:53.501Z,55.87
2018-01-21T04:03:53.498Z,55.77
2018-01-21T04:04:53.487Z,55.77
2018-01-21T04:05:53.480Z,55.67
2018-01-21T04:06:53.475Z,55.48
2018-01-21T04:07:53.467Z,55.67
2018-01-21T04:08:53.462Z,55.38
2018-01-21T04:09:53.456Z,55.67
2018-01-21T04:10:53.448Z,55.48
2018-01-21T04:11:53.442Z,55.77
2018-01-21T04:12:53.434Z,55.57
2018-01-21T04:13:53.430Z,55.48
2018-01-21T04:14:53.422Z,55.31
2018-01-21T04:15:53.417Z,55.57
2018-01-21T04:16:53.410Z,55.38
2018-01-21T04:17:53.403Z,55.51
2018-01-21T04:18:53.397Z,55.31
2018-01-21T04:19:53.392Z,55.51
2018-01-21T04:20:53.385Z,55.31
2018-01-21T04:21:53.378Z,55.60
2018-01-21T04:22:53.371Z,55.70
2018-01-21T04:23:53.364Z,55.60
2018-01-21T04:24:53.360Z,55.79
2018-01-21T04:25:53.352Z,55.60
2018-01-21T04:26:53.346Z,55.41
2018-01-21T04:27:53.342Z,55.60
2018-01-21T04:28:53.332Z,55.60
2018-01-21T04:29:53.326Z,55.60
2018-01-21T04:30:53.319Z,55.79
2018-01-21T04:31:53.313Z,55.79
2018-01-21T04:32:53.307Z,55.60
2018-01-21T04:33:53.302Z,55.60
2018-01-21T04:34:53.295Z,55.51
2018-01-21T04:35:53.290Z,55.51
2018-01-21T04:36:53.280Z,55.60
2018-01-21T04:37:53.274Z,55.79
2018-01-21T04:38:53.268Z,55.79
2018-01-21T04:39:53.264Z,55.60
2018-01-21T04:40:53.254Z,55.60
2018-01-21T04:41:53.248Z,55.79
2018-01-21T04:42:53.243Z,55.60
2018-01-21T04:43:53.239Z,55.60
2018-01-21T04:44:53.227Z,55.60
2018-01-21T04:45:53.223Z,55.60
2018-01-21T04:46:53.242Z,55.60
2018-01-21T04:47:53.230Z,55.51
2018-01-21T04:48:53.203Z,55.31
2018-01-21T04:49:53.197Z,55.41
2018-01-21T04:50:53.199Z,55.31
2018-01-21T04:51:53.186Z,55.51
2018-01-21T04:52:53.177Z,55.41
2018-01-21T04:53:53.173Z,55.31
2018-01-21T04:54:53.166Z,55.51
2018-01-21T04:55:53.160Z,55.51
2018-01-21T04:56:53.152Z,55.41
2018-01-21T04:57:53.146Z,55.41
2018-01-21T04:58:53.140Z,55.19
2018-01-21T04:59:53.134Z,55.41
2018-01-21T05:00:53.127Z,55.79
2018-01-21T05:01:53.123Z,55.57
2018-01-21T05:02:53.115Z,55.57
2018-01-21T05:03:53.109Z,55.77
2018-01-21T05:04:53.104Z,55.87
2018-01-21T05:05:53.095Z,55.89
2018-01-21T05:06:53.090Z,55.87
2018-01-21T05:07:53.083Z,55.57
2018-01-21T05:08:53.075Z,55.57
2018-01-21T05:09:53.071Z,55.67
2018-01-21T05:10:53.065Z,55.77
2018-01-21T05:11:53.058Z,55.67
2018-01-21T05:12:53.049Z,55.67
2018-01-21T05:13:53.045Z,55.38
2018-01-21T05:14:53.040Z,55.38
2018-01-21T05:15:53.033Z,55.99
2018-01-21T05:16:53.024Z,55.67
2018-01-21T05:17:53.018Z,55.77
2018-01-21T05:18:53.013Z,56.05
2018-01-21T05:19:53.009Z,55.99
2018-01-21T05:20:53.001Z,55.96
2018-01-21T05:21:52.993Z,55.77
2018-01-21T05:22:53.013Z,55.77
2018-01-21T05:23:52.983Z,55.87
2018-01-21T05:24:52.974Z,55.87
2018-01-21T05:25:52.968Z,55.77
2018-01-21T05:26:52.963Z,55.77
2018-01-21T05:27:52.954Z,55.57
2018-01-21T05:28:52.950Z,55.96
2018-01-21T05:29:52.943Z,55.38
2018-01-21T05:30:52.935Z,55.38
2018-01-21T05:31:52.930Z,55.57
2018-01-21T05:32:52.927Z,55.77
2018-01-21T05:33:52.917Z,55.57
2018-01-21T05:34:52.912Z,55.67
2018-01-21T05:35:52.905Z,55.67
2018-01-21T05:36:52.900Z,55.67
2018-01-21T05:37:52.891Z,55.67
2018-01-21T05:38:52.886Z,55.67
2018-01-21T05:39:52.880Z,55.67
2018-01-21T05:40:52.873Z,55.77
2018-01-21T05:41:52.871Z,55.77
2018-01-21T05:42:52.860Z,55.57
2018-01-21T05:43:52.853Z,55.67
2018-01-21T05:44:52.845Z,55.38
2018-01-21T05:45:52.840Z,55.38
2018-01-21T05:46:52.835Z,55.38
2018-01-21T05:47:52.826Z,55.48
2018-01-21T05:48:52.820Z,55.38
2018-01-21T05:49:52.814Z,55.38
2018-01-21T05:50:52.809Z,55.48
2018-01-21T05:51:52.803Z,55.57
2018-01-21T05:52:52.795Z,55.57
2018-01-21T05:53:52.790Z,55.87
2018-01-21T05:54:52.783Z,56.15
2018-01-21T05:55:52.779Z,56.15
2018-01-21T05:56:52.777Z,55.67
2018-01-21T05:57:52.763Z,55.96
2018-01-21T05:58:52.758Z,55.77
2018-01-21T05:59:52.755Z,56.09
2018-01-21T06:00:52.745Z,55.77
2018-01-21T06:01:52.738Z,55.87
2018-01-21T06:02:52.745Z,55.77
2018-01-21T06:03:52.727Z,55.57
2018-01-21T06:04:52.719Z,55.51
2018-01-21T06:05:52.712Z,55.57
2018-01-21T06:06:52.710Z,55.48
2018-01-21T06:07:52.703Z,55.77
2018-01-21T06:08:52.695Z,55.57
2018-01-21T06:09:52.687Z,55.67
2018-01-21T06:10:52.681Z,55.70
2018-01-21T06:11:52.676Z,55.57
2018-01-21T06:12:52.668Z,55.60
2018-01-21T06:13:52.662Z,55.38
2018-01-21T06:14:52.655Z,55.60
2018-01-21T06:15:52.650Z,55.87
2018-01-21T06:16:52.643Z,55.87
2018-01-21T06:17:52.636Z,55.87
2018-01-21T06:18:52.630Z,55.87
2018-01-21T06:19:52.626Z,55.48
2018-01-21T06:20:52.619Z,55.57
2018-01-21T06:21:52.611Z,55.57
2018-01-21T06:22:52.646Z,55.77
2018-01-21T06:23:52.600Z,55.67
2018-01-21T06:24:52.592Z,55.67
2018-01-21T06:25:52.587Z,55.77
2018-01-21T06:26:52.580Z,55.38
2018-01-21T06:27:52.573Z,55.57
2018-01-21T06:28:52.567Z,55.96
2018-01-21T06:29:52.561Z,55.96
2018-01-21T06:30:52.554Z,55.57
2018-01-21T06:31:52.558Z,55.29
2018-01-21T06:32:52.540Z,56.05
2018-01-21T06:33:52.535Z,55.87
2018-01-21T06:34:52.531Z,55.77
2018-01-21T06:35:52.529Z,56.05
2018-01-21T06:36:52.515Z,55.77
2018-01-21T06:37:52.509Z,55.77
2018-01-21T06:38:52.502Z,55.77
2018-01-21T06:39:52.499Z,55.77
2018-01-21T06:40:52.490Z,55.77
2018-01-21T06:41:52.484Z,56.05
2018-01-21T06:42:52.481Z,56.05
2018-01-21T06:43:52.474Z,56.05
2018-01-21T06:44:52.466Z,56.05
2018-01-21T06:45:52.459Z,56.05
2018-01-21T06:46:52.452Z,56.05
2018-01-21T06:47:52.448Z,56.05
2018-01-21T06:48:52.440Z,56.15
2018-01-21T06:49:52.435Z,56.05
2018-01-21T06:50:52.427Z,56.15
2018-01-21T06:51:52.421Z,56.15
2018-01-21T06:52:52.416Z,56.05
2018-01-21T06:53:52.407Z,56.05
2018-01-21T06:54:52.402Z,56.15
2018-01-21T06:55:52.396Z,56.15
2018-01-21T06:56:52.392Z,56.25
2018-01-21T06:57:52.381Z,56.15
2018-01-21T06:58:52.376Z,56.35
2018-01-21T06:59:52.371Z,56.25
2018-01-21T07:00:52.363Z,56.15
2018-01-21T07:01:52.361Z,55.96
2018-01-21T07:02:52.352Z,56.25
2018-01-21T07:03:52.344Z,56.15
2018-01-21T07:04:52.336Z,55.96
2018-01-21T07:05:52.333Z,56.35
2018-01-21T07:06:52.334Z,56.44
2018-01-21T07:07:52.319Z,56.15
2018-01-21T07:08:52.312Z,56.15
2018-01-21T07:09:52.307Z,56.15
2018-01-21T07:10:52.301Z,56.35
2018-01-21T07:11:52.293Z,56.15
2018-01-21T07:12:52.286Z,56.35
2018-01-21T07:13:52.280Z,56.25
2018-01-21T07:14:52.275Z,56.35
2018-01-21T07:15:52.270Z,56.27
2018-01-21T07:16:52.284Z,56.25
2018-01-21T07:17:52.256Z,56.25
2018-01-21T07:18:52.250Z,56.15
2018-01-21T07:19:52.244Z,56.18
2018-01-21T07:20:52.235Z,56.05
2018-01-21T07:21:52.237Z,56.05
2018-01-21T07:22:52.256Z,55.87
2018-01-21T07:23:52.218Z,56.15
2018-01-21T07:24:52.211Z,56.05
2018-01-21T07:25:52.212Z,56.15
2018-01-21T07:26:52.198Z,56.05
2018-01-21T07:27:52.192Z,55.77
2018-01-21T07:28:52.185Z,55.77
2018-01-21T07:29:52.179Z,55.67
2018-01-21T07:30:52.173Z,55.57
2018-01-21T07:31:52.167Z,55.48
2018-01-21T07:32:52.161Z,55.29
2018-01-21T07:33:52.153Z,55.77
2018-01-21T07:34:52.147Z,55.57
2018-01-21T07:35:52.143Z,55.87
2018-01-21T07:36:52.134Z,55.48
2018-01-21T07:37:52.130Z,55.38
2018-01-21T07:38:52.123Z,55.77
2018-01-21T07:39:52.118Z,55.77
2018-01-21T07:40:52.110Z,55.67
2018-01-21T07:41:52.101Z,55.48
2018-01-21T07:42:52.099Z,55.38
2018-01-21T07:43:52.092Z,55.38
2018-01-21T07:44:52.092Z,55.48
2018-01-21T07:45:52.077Z,55.38
2018-01-21T07:46:52.071Z,55.38
2018-01-21T07:47:52.071Z,55.38
2018-01-21T07:48:52.059Z,55.38
2018-01-21T07:49:52.051Z,55.38
2018-01-21T07:50:52.046Z,55.38
2018-01-21T07:51:52.039Z,55.38
2018-01-21T07:52:52.034Z,55.48
2018-01-21T07:53:52.027Z,55.29
2018-01-21T07:54:52.023Z,55.48
2018-01-21T07:55:52.014Z,55.29
2018-01-21T07:56:52.006Z,55.57
2018-01-21T07:57:52.001Z,55.57
2018-01-21T07:58:51.996Z,55.67
2018-01-21T07:59:51.990Z,55.57
2018-01-21T08:00:51.982Z,55.57
2018-01-21T08:01:51.975Z,55.48
2018-01-21T08:02:51.970Z,55.57
2018-01-21T08:03:51.965Z,55.87
2018-01-21T08:04:51.956Z,55.60
2018-01-21T08:05:51.951Z,55.77
2018-01-21T08:06:51.943Z,55.57
2018-01-21T08:07:51.941Z,55.60
2018-01-21T08:08:51.931Z,55.48
2018-01-21T08:09:51.926Z,55.29
2018-01-21T08:10:51.918Z,55.29
2018-01-21T08:11:51.916Z,55.57
2018-01-21T08:12:51.908Z,55.48
2018-01-21T08:13:51.901Z,55.57
2018-01-21T08:14:51.893Z,55.57
2018-01-21T08:15:51.888Z,55.57
2018-01-21T08:16:51.881Z,55.57
2018-01-21T08:17:51.873Z,55.87
2018-01-21T08:18:51.870Z,55.09
2018-01-21T08:19:51.863Z,55.29
2018-01-21T08:20:51.856Z,54.93
2018-01-21T08:21:51.849Z,55.12
2018-01-21T08:22:51.861Z,55.12
2018-01-21T08:23:51.836Z,55.02
2018-01-21T08:24:51.832Z,54.64
2018-01-21T08:25:51.825Z,54.74
2018-01-21T08:26:51.817Z,54.74
2018-01-21T08:27:51.812Z,54.18
2018-01-21T08:28:51.804Z,53.99
2018-01-21T08:29:51.798Z,53.89
2018-01-21T08:30:51.792Z,53.99
2018-01-21T08:31:51.788Z,53.61
2018-01-21T08:32:51.778Z,53.51
2018-01-21T08:33:51.776Z,53.51
2018-01-21T08:34:51.768Z,53.70
2018-01-21T08:35:51.761Z,53.80
2018-01-21T08:36:51.754Z,52.86
2018-01-21T08:37:51.750Z,52.95
2018-01-21T08:38:51.743Z,52.76
2018-01-21T08:39:51.736Z,52.57
2018-01-21T08:40:51.732Z,52.28
2018-01-21T08:41:51.724Z,52.21
2018-01-21T08:42:51.718Z,52.50
2018-01-21T08:43:51.713Z,52.21
2018-01-21T08:44:51.705Z,52.31
2018-01-21T08:45:51.698Z,51.53
2018-01-21T08:46:51.692Z,51.82
2018-01-21T08:47:51.687Z,51.73
2018-01-21T08:48:51.679Z,51.37
2018-01-21T08:49:51.678Z,51.46
2018-01-21T08:50:51.668Z,51.07
2018-01-21T08:51:51.665Z,51.37
2018-01-21T08:52:51.656Z,50.98
2018-01-21T08:53:51.652Z,50.79
2018-01-21T08:54:51.645Z,50.62
2018-01-21T08:55:51.640Z,50.81
2018-01-21T08:56:51.632Z,50.91
2018-01-21T08:57:51.664Z,50.43
2018-01-21T08:58:51.622Z,50.52
2018-01-21T08:59:51.613Z,50.43
2018-01-21T09:00:51.609Z,50.43
2018-01-21T09:01:51.604Z,50.33
2018-01-21T09:02:51.600Z,50.74
2018-01-21T09:03:51.593Z,50.26
2018-01-21T09:04:51.586Z,50.26
2018-01-21T09:05:51.582Z,50.16
2018-01-21T09:06:51.574Z,49.87
2018-01-21T09:07:51.569Z,49.97
2018-01-21T09:08:51.564Z,49.87
2018-01-21T09:09:51.556Z,49.87
2018-01-21T09:10:51.551Z,50.07
2018-01-21T09:11:51.546Z,49.97
2018-01-21T09:12:51.542Z,49.90
2018-01-21T09:13:51.537Z,49.99
2018-01-21T09:14:51.531Z,49.90
2018-01-21T09:15:51.527Z,50.09
2018-01-21T09:16:51.543Z,50.09
2018-01-21T09:17:51.512Z,50.09
2018-01-21T09:18:51.505Z,49.70
2018-01-21T09:19:51.500Z,49.90
2018-01-21T09:20:51.496Z,50.09
2018-01-21T09:21:51.489Z,49.87
2018-01-21T09:22:51.484Z,50.55
2018-01-21T09:23:51.479Z,50.26
2018-01-21T09:24:51.472Z,50.93
2018-01-21T09:25:51.471Z,50.71
2018-01-21T09:26:51.463Z,51.01
2018-01-21T09:27:51.457Z,51.39
2018-01-21T09:28:51.450Z,51.01
2018-01-21T09:29:51.444Z,51.27
2018-01-21T09:30:51.438Z,51.75
2018-01-21T09:31:51.432Z,51.65
2018-01-21T09:32:51.426Z,51.46
2018-01-21T09:33:51.419Z,51.37
2018-01-21T09:34:51.413Z,51.46
2018-01-21T09:35:51.414Z,50.59
2018-01-21T09:36:51.403Z,50.33
2018-01-21T09:37:51.397Z,50.07
2018-01-21T09:38:51.392Z,49.68
2018-01-21T09:39:51.390Z,49.22
2018-01-21T09:40:51.386Z,48.37
2018-01-21T09:41:51.379Z,48.01
2018-01-21T09:42:51.376Z,48.01
2018-01-21T09:43:51.370Z,47.64
2018-01-21T09:44:51.368Z,47.09
2018-01-21T09:45:51.363Z,47.09
2018-01-21T09:46:51.365Z,46.89
2018-01-21T09:47:51.359Z,46.72
2018-01-21T09:48:51.356Z,45.95
2018-01-21T09:49:51.354Z,46.07
2018-01-21T09:50:51.353Z,45.68
2018-01-21T09:51:51.354Z,45.97
2018-01-21T09:52:51.350Z,45.78
2018-01-21T09:53:51.348Z,45.41
2018-01-21T09:54:51.346Z,45.21
2018-01-21T09:55:51.345Z,45.41
2018-01-21T09:56:51.345Z,44.83
2018-01-21T09:57:51.345Z,45.31
2018-01-21T09:58:51.342Z,45.12
2018-01-21T09:59:51.341Z,45.04
2018-01-21T10:00:51.340Z,44.92
2018-01-21T10:01:51.338Z,44.92
2018-01-21T10:02:51.342Z,44.83
2018-01-21T10:03:51.337Z,45.21
2018-01-21T10:04:51.331Z,45.20
2018-01-21T10:05:51.336Z,45.29
2018-01-21T10:06:51.334Z,45.27
2018-01-21T10:07:51.332Z,45.56
2018-01-21T10:08:51.356Z,45.37
2018-01-21T10:09:51.328Z,46.04
2018-01-21T10:10:51.326Z,45.92
2018-01-21T10:11:51.331Z,46.12
2018-01-21T10:12:51.322Z,45.83
2018-01-21T10:13:51.319Z,45.61
2018-01-21T10:14:51.317Z,46.09
2018-01-21T10:15:51.317Z,46.00
2018-01-21T10:16:51.311Z,45.90
2018-01-21T10:17:51.308Z,45.78
2018-01-21T10:18:51.305Z,46.26
2018-01-21T10:19:51.302Z,46.17
2018-01-21T10:20:51.299Z,45.78
2018-01-21T10:21:51.295Z,46.08
2018-01-21T10:22:51.294Z,46.08
2018-01-21T10:23:51.291Z,46.17
2018-01-21T10:24:51.289Z,46.08
2018-01-21T10:25:51.285Z,45.78
2018-01-21T10:26:51.281Z,46.26
2018-01-21T10:27:51.278Z,46.63
2018-01-21T10:28:51.273Z,46.73
2018-01-21T10:29:51.270Z,46.63
2018-01-21T10:30:51.266Z,46.63
2018-01-21T10:31:51.264Z,47.00
2018-01-21T10:32:51.260Z,46.80
2018-01-21T10:33:51.254Z,46.70
2018-01-21T10:34:51.250Z,46.70
2018-01-21T10:35:51.248Z,47.00
2018-01-21T10:36:51.244Z,47.16
2018-01-21T10:37:51.236Z,47.16
2018-01-21T10:38:51.232Z,47.45
2018-01-21T10:39:51.228Z,47.36
2018-01-21T10:40:51.225Z,47.91
2018-01-21T10:41:51.218Z,47.72
2018-01-21T10:42:51.214Z,47.72
2018-01-21T10:43:51.210Z,47.81
2018-01-21T10:44:51.204Z,47.91
2018-01-21T10:45:51.200Z,47.91
2018-01-21T10:46:51.192Z,48.08
2018-01-21T10:47:51.187Z,47.80
2018-01-21T10:48:51.182Z,48.18
2018-01-21T10:49:51.178Z,48.08
2018-01-21T10:50:51.169Z,48.08
2018-01-21T10:51:51.169Z,48.18
2018-01-21T10:52:51.159Z,48.08
2018-01-21T10:53:51.152Z,48.11
2018-01-21T10:54:51.147Z,47.91
2018-01-21T10:55:51.143Z,47.63
2018-01-21T10:56:51.134Z,47.81
2018-01-21T10:57:51.128Z,47.81
2018-01-21T10:58:51.123Z,47.81
2018-01-21T10:59:51.116Z,47.43
2018-01-21T11:00:51.111Z,48.01
2018-01-21T11:01:51.105Z,47.81
2018-01-21T11:02:51.099Z,47.53
2018-01-21T11:03:51.128Z,47.14
2018-01-21T11:04:51.086Z,47.55
2018-01-21T11:05:51.079Z,47.36
2018-01-21T11:06:51.077Z,47.55
2018-01-21T11:07:51.069Z,47.16
2018-01-21T11:08:51.062Z,46.97
2018-01-21T11:09:51.056Z,46.97
2018-01-21T11:10:51.050Z,46.90
2018-01-21T11:11:51.045Z,46.70
2018-01-21T11:12:51.037Z,46.68
2018-01-21T11:13:51.031Z,47.16
2018-01-21T11:14:51.026Z,47.36
2018-01-21T11:15:51.021Z,47.36
2018-01-21T11:16:51.015Z,47.36
2018-01-21T11:17:51.007Z,47.55
2018-01-21T11:18:51.001Z,47.84
2018-01-21T11:19:50.995Z,47.36
2018-01-21T11:20:50.988Z,47.74
2018-01-21T11:21:50.983Z,47.43
2018-01-21T11:22:50.976Z,48.11
2018-01-21T11:23:50.971Z,48.21
2018-01-21T11:24:50.964Z,48.39
2018-01-21T11:25:50.957Z,47.91
2018-01-21T11:26:50.952Z,48.59
2018-01-21T11:27:50.945Z,48.37
2018-01-21T11:28:50.939Z,48.18
2018-01-21T11:29:50.934Z,48.47
2018-01-21T11:30:50.926Z,48.95
2018-01-21T11:31:50.948Z,48.76
2018-01-21T11:32:50.911Z,48.76
2018-01-21T11:33:50.907Z,49.24
2018-01-21T11:34:50.897Z,49.05
2018-01-21T11:35:50.892Z,49.05
2018-01-21T11:36:50.885Z,49.02
2018-01-21T11:37:50.879Z,49.02
2018-01-21T11:38:50.872Z,49.41
2018-01-21T11:39:50.865Z,49.12
2018-01-21T11:40:50.857Z,49.12
2018-01-21T11:41:50.849Z,49.51
2018-01-21T11:42:50.843Z,49.99
2018-01-21T11:43:50.837Z,49.70
2018-01-21T11:44:50.829Z,50.09
2018-01-21T11:45:50.829Z,49.99
2018-01-21T11:46:50.819Z,49.80
2018-01-21T11:47:50.811Z,49.99
2018-01-21T11:48:50.804Z,49.70
2018-01-21T11:49:50.796Z,50.28
2018-01-21T11:50:50.789Z,50.45
2018-01-21T11:51:50.782Z,50.74
2018-01-21T11:52:50.775Z,50.26
2018-01-21T11:53:50.769Z,50.35
2018-01-21T11:54:50.761Z,50.35
2018-01-21T11:55:50.760Z,50.54
2018-01-21T11:56:50.746Z,50.45
2018-01-21T11:57:50.740Z,50.35
2018-01-21T11:58:50.732Z,50.45
2018-01-21T11:59:50.733Z,50.84
2018-01-21T12:00:50.717Z,50.84
2018-01-21T12:01:50.711Z,50.84
2018-01-21T12:02:50.704Z,50.93
2018-01-21T12:03:50.698Z,50.84
2018-01-21T12:04:50.689Z,50.54
2018-01-21T12:05:50.683Z,50.74
2018-01-21T12:06:50.675Z,50.74
2018-01-21T12:07:50.668Z,50.64
2018-01-21T12:08:50.661Z,50.74
2018-01-21T12:09:50.654Z,50.74
2018-01-21T12:10:50.647Z,50.64
2018-01-21T12:11:50.639Z,50.54
2018-01-21T12:12:50.631Z,50.64
2018-01-21T12:13:50.623Z,50.54
2018-01-21T12:14:50.617Z,50.64
2018-01-21T12:15:50.612Z,50.74
2018-01-21T12:16:50.603Z,51.03
2018-01-21T12:17:50.594Z,50.64
2018-01-21T12:18:50.590Z,50.74
2018-01-21T12:19:50.588Z,50.84
2018-01-21T12:20:50.573Z,50.93
2018-01-21T12:21:50.565Z,50.84
2018-01-21T12:22:50.557Z,50.93
2018-01-21T12:23:50.551Z,50.93
2018-01-21T12:24:50.541Z,51.61
2018-01-21T12:25:50.533Z,51.32
2018-01-21T12:26:50.528Z,51.51
2018-01-21T12:27:50.522Z,51.61
2018-01-21T12:28:50.514Z,51.32
2018-01-21T12:29:50.506Z,51.32
2018-01-21T12:30:50.498Z,51.22
2018-01-21T12:31:50.496Z,51.32
2018-01-21T12:32:50.486Z,51.12
2018-01-21T12:33:50.478Z,51.51
2018-01-21T12:34:50.468Z,51.61
2018-01-21T12:35:50.466Z,51.70
2018-01-21T12:36:50.499Z,51.32
2018-01-21T12:37:50.447Z,51.32
2018-01-21T12:38:50.441Z,51.89
2018-01-21T12:39:50.433Z,51.70
2018-01-21T12:40:50.426Z,51.80
2018-01-21T12:41:50.419Z,51.51
2018-01-21T12:42:50.452Z,51.41
2018-01-21T12:43:50.404Z,51.70
2018-01-21T12:44:50.394Z,51.89
2018-01-21T12:45:50.388Z,52.25
2018-01-21T12:46:50.379Z,52.19
2018-01-21T12:47:50.374Z,52.37
2018-01-21T12:48:50.365Z,52.09
2018-01-21T12:49:50.359Z,51.97
2018-01-21T12:50:50.352Z,52.19
2018-01-21T12:51:50.343Z,52.37
2018-01-21T12:52:50.338Z,52.45